createdAt,value
2018-10-18T00:00:36.367Z,21.68
2018-10-18T00:03:04.001Z,21.68
2018-10-18T00:05:32.024Z,21.68
2018-10-18T00:07:59.707Z,21.67
2018-10-18T00:10:27.340Z,21.66
2018-10-18T00:12:54.944Z,21.67
2018-10-18T00:15:22.590Z,21.65
2018-10-18T00:17:50.210Z,21.65
2018-10-18T00:20:18.060Z,21.64
2018-10-18T00:22:46.260Z,21.65
2018-10-18T00:25:14.309Z,21.64
2018-10-18T00:27:41.931Z,21.63
2018-10-18T00:30:11.735Z,21.64
2018-10-18T00:32:39.485Z,21.65
2018-10-18T00:35:07.109Z,21.65
2018-10-18T00:37:34.761Z,21.63
2018-10-18T00:40:02.399Z,21.63
2018-10-18T00:42:30.027Z,21.63
2018-10-18T00:44:57.663Z,21.64
2018-10-18T00:47:25.324Z,21.63
2018-10-18T00:49:52.984Z,21.63
2018-10-18T00:52:20.619Z,21.62
2018-10-18T00:54:48.489Z,21.62
2018-10-18T00:57:16.110Z,21.61
2018-10-18T00:59:44.613Z,21.61
2018-10-18T01:02:12.243Z,21.59
2018-10-18T01:04:39.890Z,21.59
2018-10-18T01:07:07.546Z,21.58
2018-10-18T01:09:35.160Z,21.59
2018-10-18T01:12:02.843Z,21.59
2018-10-18T01:14:30.454Z,21.60
2018-10-18T01:17:02.159Z,21.59
2018-10-18T01:19:30.461Z,21.59
2018-10-18T01:21:58.094Z,21.60
2018-10-18T01:24:25.728Z,21.58
2018-10-18T01:26:53.406Z,21.56
2018-10-18T01:29:21.062Z,21.58
2018-10-18T01:31:48.684Z,21.56
2018-10-18T01:34:16.314Z,21.57
2018-10-18T01:36:43.936Z,21.56
2018-10-18T01:39:11.699Z,21.55
2018-10-18T01:41:39.937Z,21.57
2018-10-18T01:44:07.611Z,21.55
2018-10-18T01:46:35.214Z,21.55
2018-10-18T01:49:02.857Z,21.55
2018-10-18T01:51:30.486Z,21.55
2018-10-18T01:53:58.154Z,21.54
2018-10-18T01:56:25.777Z,21.54
2018-10-18T01:58:53.402Z,21.54
2018-10-18T02:01:21.037Z,21.53
2018-10-18T02:03:48.659Z,21.52
2018-10-18T02:06:16.317Z,21.51
2018-10-18T02:08:44.228Z,21.50
2018-10-18T02:11:11.862Z,21.49
2018-10-18T02:13:39.512Z,21.48
2018-10-18T02:16:07.600Z,21.47
2018-10-18T02:18:35.240Z,21.49
2018-10-18T02:21:02.869Z,21.48
2018-10-18T02:23:30.492Z,21.47
2018-10-18T02:25:58.104Z,21.46
2018-10-18T02:28:25.729Z,21.34
2018-10-18T02:30:53.365Z,21.46
2018-10-18T02:33:20.973Z,21.47
2018-10-18T02:35:48.594Z,21.46
2018-10-18T02:38:16.247Z,21.47
2018-10-18T02:40:43.889Z,21.46
2018-10-18T02:43:11.513Z,21.46
2018-10-18T02:45:39.142Z,21.46
2018-10-18T02:48:06.816Z,21.44
2018-10-18T02:50:34.425Z,21.46
2018-10-18T02:53:02.076Z,21.45
2018-10-18T02:55:29.705Z,21.45
2018-10-18T02:57:57.348Z,21.44
2018-10-18T03:00:24.985Z,21.44
2018-10-18T03:02:52.692Z,21.43
2018-10-18T03:05:20.380Z,21.43
2018-10-18T03:07:48.007Z,21.43
2018-10-18T03:10:15.628Z,21.43
2018-10-18T03:12:43.251Z,21.43
2018-10-18T03:15:11.089Z,21.42
2018-10-18T03:17:38.813Z,21.42
2018-10-18T03:20:06.481Z,21.42
2018-10-18T03:22:34.282Z,21.43
2018-10-18T03:25:01.906Z,21.42
2018-10-18T03:27:29.601Z,21.42
2018-10-18T03:29:57.341Z,21.42
2018-10-18T03:32:25.032Z,21.41
2018-10-18T03:34:53.092Z,21.41
2018-10-18T03:37:20.725Z,21.40
2018-10-18T03:39:48.351Z,21.40
2018-10-18T03:42:16.072Z,21.40
2018-10-18T03:44:43.675Z,21.39
2018-10-18T03:47:11.303Z,21.38
2018-10-18T03:49:38.943Z,21.37
2018-10-18T03:52:07.259Z,21.38
2018-10-18T03:54:34.996Z,21.38
2018-10-18T03:57:02.617Z,21.37
2018-10-18T03:59:30.283Z,21.37
2018-10-18T04:01:58.004Z,21.36
2018-10-18T04:04:25.633Z,21.36
2018-10-18T04:06:53.411Z,21.37
2018-10-18T04:09:21.085Z,21.39
2018-10-18T04:11:48.740Z,21.36
2018-10-18T04:14:16.382Z,21.35
2018-10-18T04:16:44.029Z,21.34
2018-10-18T04:19:11.652Z,21.35
2018-10-18T04:21:39.287Z,21.34
2018-10-18T04:24:06.961Z,21.35
2018-10-18T04:26:34.577Z,21.34
2018-10-18T04:29:02.198Z,21.34
2018-10-18T04:31:29.846Z,21.34
2018-10-18T04:33:57.470Z,21.33
2018-10-18T04:36:25.108Z,21.33
2018-10-18T04:38:52.733Z,21.33
2018-10-18T04:41:20.361Z,21.34
2018-10-18T04:43:47.984Z,21.33
2018-10-18T04:46:15.615Z,21.32
2018-10-18T04:48:43.332Z,21.32
2018-10-18T04:51:10.914Z,21.32
2018-10-18T04:53:38.552Z,21.31
2018-10-18T04:56:06.185Z,21.31
2018-10-18T04:58:33.822Z,21.31
2018-10-18T05:01:01.489Z,21.30
2018-10-18T05:03:29.090Z,21.29
2018-10-18T05:05:59.327Z,21.31
2018-10-18T05:08:27.541Z,21.28
2018-10-18T05:10:55.291Z,21.29
2018-10-18T05:13:22.953Z,21.29
2018-10-18T05:15:50.573Z,21.28
2018-10-18T05:18:18.502Z,21.28
2018-10-18T05:20:46.479Z,21.28
2018-10-18T05:23:14.117Z,21.27
2018-10-18T05:25:42.014Z,21.27
2018-10-18T05:28:09.590Z,21.26
2018-10-18T05:30:37.229Z,21.27
2018-10-18T05:33:05.109Z,21.25
2018-10-18T05:35:32.733Z,21.26
2018-10-18T05:38:00.361Z,21.25
2018-10-18T05:40:28.042Z,21.26
2018-10-18T05:42:55.738Z,21.26
2018-10-18T05:45:23.346Z,21.25
2018-10-18T05:47:50.997Z,21.13
2018-10-18T05:50:18.647Z,21.25
2018-10-18T05:52:46.291Z,21.24
2018-10-18T05:55:14.008Z,21.24
2018-10-18T05:57:42.246Z,21.24
2018-10-18T06:00:12.279Z,21.25
2018-10-18T06:02:40.526Z,21.24
2018-10-18T06:05:08.529Z,21.23
2018-10-18T06:07:36.488Z,21.23
2018-10-18T06:10:04.494Z,21.24
2018-10-18T06:12:32.140Z,21.24
2018-10-18T06:14:59.850Z,21.24
2018-10-18T06:17:27.585Z,21.25
2018-10-18T06:19:55.316Z,21.24
2018-10-18T06:22:22.985Z,21.25
2018-10-18T06:24:50.693Z,21.24
2018-10-18T06:27:18.414Z,21.24
2018-10-18T06:29:46.112Z,21.22
2018-10-18T06:32:13.797Z,21.22
2018-10-18T06:34:41.480Z,21.23
2018-10-18T06:37:09.195Z,21.24
2018-10-18T06:39:36.917Z,21.25
2018-10-18T06:42:04.634Z,21.24
2018-10-18T06:44:32.345Z,21.23
2018-10-18T06:47:00.097Z,21.24
2018-10-18T06:49:27.784Z,21.24
2018-10-18T06:51:55.513Z,21.25
2018-10-18T06:54:23.224Z,21.25
2018-10-18T06:56:50.970Z,21.25
2018-10-18T06:59:18.682Z,21.27
2018-10-18T07:01:46.430Z,21.26
2018-10-18T07:04:14.113Z,21.26
2018-10-18T07:06:41.834Z,21.29
2018-10-18T07:09:10.412Z,21.29
2018-10-18T07:11:38.136Z,21.30
2018-10-18T07:14:05.840Z,21.30
2018-10-18T07:16:33.543Z,21.30
2018-10-18T07:19:01.361Z,21.31
2018-10-18T07:21:29.082Z,21.35
2018-10-18T07:23:56.793Z,21.43
2018-10-18T07:26:24.537Z,21.48
2018-10-18T07:28:52.246Z,21.53
2018-10-18T07:31:19.960Z,21.49
2018-10-18T07:33:47.659Z,21.48
2018-10-18T07:36:15.428Z,21.43
2018-10-18T07:38:43.078Z,21.39
2018-10-18T07:41:10.819Z,21.51
2018-10-18T07:43:38.710Z,21.55
2018-10-18T07:46:06.409Z,21.57
2018-10-18T07:48:34.110Z,21.60
2018-10-18T07:51:01.789Z,21.62
2018-10-18T07:53:29.564Z,21.61
2018-10-18T07:55:57.264Z,21.58
2018-10-18T07:58:24.978Z,21.59
2018-10-18T08:00:52.811Z,21.60
2018-10-18T08:03:20.401Z,21.60
2018-10-18T08:05:48.102Z,21.68
2018-10-18T08:08:15.827Z,21.73
2018-10-18T08:10:43.502Z,21.72
2018-10-18T08:13:11.228Z,21.66
2018-10-18T08:15:38.882Z,21.60
2018-10-18T08:18:06.582Z,21.59
2018-10-18T08:20:34.268Z,21.67
2018-10-18T08:23:01.942Z,21.72
2018-10-18T08:25:29.662Z,21.72
2018-10-18T08:27:57.342Z,21.74
2018-10-18T08:30:25.047Z,21.75
2018-10-18T08:32:52.766Z,21.78
2018-10-18T08:35:20.480Z,21.79
2018-10-18T08:37:48.254Z,21.79
2018-10-18T08:40:15.930Z,21.82
2018-10-18T08:42:43.670Z,21.81
2018-10-18T08:45:12.061Z,21.80
2018-10-18T08:47:39.836Z,21.74
2018-10-18T08:50:09.090Z,21.73
2018-10-18T08:52:36.821Z,21.72
2018-10-18T08:55:04.743Z,21.69
2018-10-18T08:57:32.513Z,21.67
2018-10-18T09:00:00.234Z,21.66
2018-10-18T09:02:27.969Z,21.64
2018-10-18T09:04:55.676Z,21.64
2018-10-18T09:07:23.421Z,21.63
2018-10-18T09:09:51.238Z,21.66
2018-10-18T09:12:18.990Z,21.66
2018-10-18T09:14:46.668Z,21.62
2018-10-18T09:17:14.377Z,21.63
2018-10-18T09:19:42.102Z,21.61
2018-10-18T09:22:09.794Z,21.61
2018-10-18T09:24:37.495Z,21.61
2018-10-18T09:27:05.227Z,21.62
2018-10-18T09:29:32.905Z,21.63
2018-10-18T09:32:00.618Z,21.65
2018-10-18T09:34:28.315Z,21.68
2018-10-18T09:36:56.175Z,21.65
2018-10-18T09:39:23.863Z,21.78
2018-10-18T09:41:51.571Z,21.80
2018-10-18T09:44:19.334Z,21.80
2018-10-18T09:46:46.988Z,21.77
2018-10-18T09:49:14.854Z,21.76
2018-10-18T09:51:42.474Z,21.81
2018-10-18T09:54:10.149Z,21.84
2018-10-18T09:56:37.837Z,21.83
2018-10-18T09:59:05.775Z,21.86
2018-10-18T10:01:38.784Z,21.84
2018-10-18T10:04:06.503Z,21.85
2018-10-18T10:06:34.218Z,21.85
2018-10-18T10:09:01.942Z,21.85
2018-10-18T10:11:29.712Z,21.85
2018-10-18T10:13:57.394Z,21.84
2018-10-18T10:16:25.097Z,21.83
2018-10-18T10:18:52.776Z,21.82
2018-10-18T10:21:20.484Z,21.85
2018-10-18T10:23:48.205Z,21.82
2018-10-18T10:26:15.946Z,21.83
2018-10-18T10:28:43.670Z,21.81
2018-10-18T10:31:11.446Z,21.81
2018-10-18T10:33:39.453Z,21.83
2018-10-18T10:36:07.135Z,21.85
2018-10-18T10:38:35.158Z,21.85
2018-10-18T10:41:02.902Z,21.83
2018-10-18T10:43:30.625Z,21.84
2018-10-18T10:45:58.393Z,21.86
2018-10-18T10:48:26.364Z,21.85
2018-10-18T10:50:54.061Z,21.84
2018-10-18T10:53:21.799Z,21.84
2018-10-18T10:55:49.949Z,21.82
2018-10-18T10:58:17.779Z,21.84
2018-10-18T11:01:21.326Z,21.85
2018-10-18T11:03:50.093Z,21.85
2018-10-18T11:06:17.884Z,21.84
2018-10-18T11:08:45.689Z,21.86
2018-10-18T11:11:14.201Z,21.86
2018-10-18T11:13:41.894Z,21.88
2018-10-18T11:16:09.583Z,21.86
2018-10-18T11:18:38.024Z,21.86
2018-10-18T11:21:06.746Z,21.87
2018-10-18T11:23:35.012Z,21.87
2018-10-18T11:26:02.881Z,21.87
2018-10-18T11:28:30.591Z,21.88
2018-10-18T11:30:58.326Z,21.88
2018-10-18T11:33:26.022Z,21.86
2018-10-18T11:35:53.755Z,21.86
2018-10-18T11:38:21.418Z,21.87
2018-10-18T11:40:49.149Z,21.87
2018-10-18T11:43:16.837Z,21.88
2018-10-18T11:45:44.550Z,21.86
2018-10-18T11:48:13.455Z,21.87
2018-10-18T11:50:41.520Z,21.88
2018-10-18T11:53:09.226Z,21.88
2018-10-18T11:55:37.153Z,21.86
2018-10-18T11:58:05.153Z,21.87
2018-10-18T12:00:32.978Z,21.87
2018-10-18T12:03:00.691Z,21.89
2018-10-18T12:05:28.390Z,21.89
2018-10-18T12:07:56.101Z,21.88
2018-10-18T12:10:23.830Z,21.89
2018-10-18T12:12:51.530Z,21.90
2018-10-18T12:15:19.221Z,21.90
2018-10-18T12:17:46.919Z,21.90
2018-10-18T12:20:15.908Z,21.90
2018-10-18T12:22:43.564Z,21.90
2018-10-18T12:25:11.919Z,21.91
2018-10-18T12:27:39.663Z,21.92
2018-10-18T12:30:07.745Z,21.91
2018-10-18T12:32:35.771Z,21.90
2018-10-18T12:35:03.554Z,21.92
2018-10-18T12:37:31.193Z,21.93
2018-10-18T12:39:58.975Z,21.93
2018-10-18T12:42:26.742Z,21.93
2018-10-18T12:44:54.428Z,21.94
2018-10-18T12:47:22.149Z,21.95
2018-10-18T12:49:49.837Z,21.94
2018-10-18T12:52:17.530Z,21.95
2018-10-18T12:54:45.224Z,21.95
2018-10-18T12:57:13.750Z,21.93
2018-10-18T12:59:41.458Z,21.95
2018-10-18T13:02:09.253Z,21.95
2018-10-18T13:04:37.324Z,21.95
2018-10-18T13:07:05.226Z,21.96
2018-10-18T13:09:32.963Z,21.96
2018-10-18T13:12:00.729Z,21.97
2018-10-18T13:14:29.121Z,21.97
2018-10-18T13:16:56.830Z,21.98
2018-10-18T13:19:24.556Z,21.98
2018-10-18T13:21:52.293Z,21.97
2018-10-18T13:24:19.995Z,21.98
2018-10-18T13:26:47.718Z,22.00
2018-10-18T13:29:15.503Z,21.98
2018-10-18T13:31:43.188Z,21.98
2018-10-18T13:34:10.932Z,21.98
2018-10-18T13:36:38.635Z,21.98
2018-10-18T13:39:08.000Z,22.01
2018-10-18T13:41:35.713Z,21.99
2018-10-18T13:44:03.487Z,22.01
2018-10-18T13:46:31.248Z,21.99
2018-10-18T13:48:58.916Z,22.00
2018-10-18T13:51:26.612Z,22.01
2018-10-18T13:53:54.314Z,22.02
2018-10-18T13:56:22.027Z,22.02
2018-10-18T13:58:49.757Z,22.03
2018-10-18T14:01:17.454Z,22.02
2018-10-18T14:03:45.143Z,22.02
2018-10-18T14:06:12.869Z,22.05
2018-10-18T14:08:40.672Z,22.03
2018-10-18T14:11:08.396Z,22.02
2018-10-18T14:13:36.025Z,22.04
2018-10-18T14:16:03.802Z,22.02
2018-10-18T14:18:31.517Z,22.02
2018-10-18T14:20:59.223Z,22.00
2018-10-18T14:23:26.900Z,22.01
2018-10-18T14:25:54.612Z,22.01
2018-10-18T14:28:22.301Z,21.99
2018-10-18T14:30:50.010Z,21.99
2018-10-18T14:33:17.712Z,22.00
2018-10-18T14:35:45.392Z,22.01
2018-10-18T14:38:13.201Z,21.98
2018-10-18T14:40:40.810Z,22.00
2018-10-18T14:43:08.523Z,21.99
2018-10-18T14:45:36.256Z,22.00
2018-10-18T14:48:03.956Z,22.00
2018-10-18T14:50:31.986Z,21.99
2018-10-18T14:52:59.440Z,22.00
2018-10-18T14:55:27.109Z,21.99
2018-10-18T14:57:54.880Z,22.01
2018-10-18T15:00:22.572Z,22.00
2018-10-18T15:02:50.276Z,22.02
2018-10-18T15:05:18.049Z,22.02
2018-10-18T15:07:45.693Z,21.98
2018-10-18T15:10:14.249Z,22.00
2018-10-18T15:12:42.289Z,22.01
2018-10-18T15:15:10.904Z,22.00
2018-10-18T15:17:38.590Z,21.99
2018-10-18T15:20:06.817Z,21.98
2018-10-18T15:22:34.550Z,21.98
2018-10-18T15:25:02.284Z,21.97
2018-10-18T15:27:30.096Z,21.97
2018-10-18T15:29:57.721Z,21.97
2018-10-18T15:32:25.470Z,21.95
2018-10-18T15:34:53.203Z,21.95
2018-10-18T15:37:20.925Z,21.94
2018-10-18T15:39:48.657Z,21.95
2018-10-18T15:42:16.332Z,21.94
2018-10-18T15:44:44.011Z,21.94
2018-10-18T15:47:11.757Z,21.92
2018-10-18T15:49:39.440Z,21.93
2018-10-18T15:52:07.124Z,21.92
2018-10-18T15:54:34.914Z,21.91
2018-10-18T15:57:02.607Z,21.91
2018-10-18T15:59:30.309Z,21.90
2018-10-18T16:01:57.997Z,21.90
2018-10-18T16:04:25.688Z,21.90
2018-10-18T16:06:53.412Z,21.90
2018-10-18T16:09:21.146Z,21.85
2018-10-18T16:11:48.856Z,21.85
2018-10-18T16:14:16.682Z,21.83
2018-10-18T16:16:44.293Z,21.84
2018-10-18T16:19:11.965Z,21.84
2018-10-18T16:21:39.651Z,21.82
2018-10-18T16:24:07.413Z,21.83
2018-10-18T16:26:35.156Z,21.82
2018-10-18T16:29:02.874Z,21.81
2018-10-18T16:31:30.640Z,21.81
2018-10-18T16:33:58.362Z,21.82
2018-10-18T16:36:26.073Z,21.79
2018-10-18T16:38:53.794Z,21.79
2018-10-18T16:41:21.951Z,21.81
2018-10-18T16:43:49.449Z,21.79
2018-10-18T16:46:17.249Z,21.79
2018-10-18T16:48:44.945Z,21.78
2018-10-18T16:51:12.673Z,21.79
2018-10-18T16:53:40.406Z,21.76
2018-10-18T16:56:08.179Z,21.77
2018-10-18T16:58:35.916Z,21.77
2018-10-18T17:01:03.673Z,21.76
2018-10-18T17:03:31.367Z,21.75
2018-10-18T17:05:59.320Z,21.76
2018-10-18T17:08:27.004Z,21.77
2018-10-18T17:10:54.719Z,21.76
2018-10-18T17:13:22.393Z,21.76
2018-10-18T17:15:50.168Z,21.76
2018-10-18T17:18:17.912Z,21.75
2018-10-18T17:20:45.680Z,21.76
2018-10-18T17:23:13.371Z,21.76
2018-10-18T17:25:41.060Z,21.75
2018-10-18T17:28:08.721Z,21.73
2018-10-18T17:30:36.424Z,21.72
2018-10-18T17:33:04.110Z,21.74
2018-10-18T17:35:31.772Z,21.74
2018-10-18T17:37:59.532Z,21.74
2018-10-18T17:40:27.269Z,21.74
2018-10-18T17:42:54.993Z,21.74
2018-10-18T17:45:22.670Z,21.76
2018-10-18T17:47:50.377Z,21.76
2018-10-18T17:50:18.189Z,21.78
2018-10-18T17:52:45.874Z,21.73
2018-10-18T17:55:13.558Z,21.75
2018-10-18T17:57:41.253Z,21.73
2018-10-18T18:00:10.015Z,21.76
2018-10-18T18:02:37.752Z,21.75
2018-10-18T18:05:05.641Z,21.73
2018-10-18T18:07:33.374Z,21.74
2018-10-18T18:10:01.104Z,21.74
2018-10-18T18:12:28.818Z,21.73
2018-10-18T18:14:56.544Z,21.72
2018-10-18T18:17:24.231Z,21.74
2018-10-18T18:19:51.937Z,21.73
2018-10-18T18:22:19.615Z,21.74
2018-10-18T18:24:47.385Z,21.74
2018-10-18T18:27:15.010Z,21.72
2018-10-18T18:29:42.662Z,21.71
2018-10-18T18:32:10.294Z,21.74
2018-10-18T18:34:37.939Z,21.74
2018-10-18T18:37:05.565Z,21.73
2018-10-18T18:39:33.222Z,21.72
2018-10-18T18:42:00.867Z,21.74
2018-10-18T18:44:28.495Z,21.72
2018-10-18T18:46:56.135Z,21.72
2018-10-18T18:49:23.877Z,21.73
2018-10-18T18:51:51.568Z,21.72
2018-10-18T18:54:19.290Z,21.72
2018-10-18T18:56:46.937Z,21.73
2018-10-18T18:59:14.591Z,21.72
2018-10-18T19:01:42.224Z,21.73
2018-10-18T19:04:09.885Z,21.73
2018-10-18T19:06:37.551Z,21.73
2018-10-18T19:09:06.347Z,21.72
2018-10-18T19:11:33.937Z,21.71
2018-10-18T19:14:01.607Z,21.71
2018-10-18T19:16:29.228Z,21.72
2018-10-18T19:18:56.861Z,21.73
2018-10-18T19:21:24.529Z,21.71
2018-10-18T19:23:52.152Z,21.71
2018-10-18T19:26:19.786Z,21.71
2018-10-18T19:28:47.505Z,21.71
2018-10-18T19:31:15.082Z,21.72
2018-10-18T19:33:42.707Z,21.71
2018-10-18T19:36:10.357Z,21.72
2018-10-18T19:38:38.041Z,21.70
2018-10-18T19:41:05.618Z,21.55
2018-10-18T19:43:33.286Z,21.70
2018-10-18T19:46:00.930Z,21.68
2018-10-18T19:48:28.565Z,21.69
2018-10-18T19:50:56.197Z,21.68
2018-10-18T19:53:23.845Z,21.67
2018-10-18T19:55:51.481Z,21.66
2018-10-18T19:58:19.124Z,21.68
2018-10-18T20:00:46.741Z,21.69
2018-10-18T20:03:14.395Z,21.68
2018-10-18T20:05:42.045Z,21.67
2018-10-18T20:08:09.683Z,21.64
2018-10-18T20:10:37.342Z,21.66
2018-10-18T20:13:05.045Z,21.67
2018-10-18T20:15:32.654Z,21.66
2018-10-18T20:18:00.303Z,21.65
2018-10-18T20:20:27.954Z,21.66
2018-10-18T20:22:55.597Z,21.66
2018-10-18T20:25:23.307Z,21.65
2018-10-18T20:27:50.886Z,21.64
2018-10-18T20:30:18.513Z,21.64
2018-10-18T20:32:46.203Z,21.65
2018-10-18T20:35:13.827Z,21.65
2018-10-18T20:37:41.804Z,21.63
2018-10-18T20:40:11.082Z,21.65
2018-10-18T20:42:38.792Z,21.64
2018-10-18T20:45:07.014Z,21.62
2018-10-18T20:47:34.723Z,21.65
2018-10-18T20:50:02.270Z,21.60
2018-10-18T20:52:29.960Z,21.60
2018-10-18T20:54:57.585Z,21.62
2018-10-18T20:57:25.226Z,21.62
2018-10-18T20:59:52.891Z,21.60
2018-10-18T21:02:20.625Z,21.61
2018-10-18T21:04:48.268Z,21.60
2018-10-18T21:07:15.909Z,21.60
2018-10-18T21:09:43.562Z,21.64
2018-10-18T21:12:11.253Z,21.60
2018-10-18T21:14:38.861Z,21.60
2018-10-18T21:17:06.544Z,21.63
2018-10-18T21:19:34.162Z,21.60
2018-10-18T21:22:01.851Z,21.60
2018-10-18T21:24:29.483Z,21.60
2018-10-18T21:26:57.178Z,21.61
2018-10-18T21:29:24.788Z,21.63
2018-10-18T21:31:52.441Z,21.64
2018-10-18T21:34:20.172Z,21.62
2018-10-18T21:36:47.834Z,21.62
2018-10-18T21:39:19.890Z,21.63
2018-10-18T21:41:47.505Z,21.65
2018-10-18T21:44:15.125Z,21.66
2018-10-18T21:46:42.761Z,21.66
2018-10-18T21:49:10.452Z,21.65
2018-10-18T21:51:38.109Z,21.64
2018-10-18T21:54:05.734Z,21.66
2018-10-18T21:56:33.382Z,21.65
2018-10-18T21:59:01.073Z,21.66
2018-10-18T22:01:28.693Z,21.63
2018-10-18T22:03:56.332Z,21.65
2018-10-18T22:06:23.948Z,21.65
2018-10-18T22:08:51.649Z,21.64
2018-10-18T22:11:19.291Z,21.64
2018-10-18T22:13:46.947Z,21.65
2018-10-18T22:16:14.577Z,21.63
2018-10-18T22:18:42.218Z,21.64
2018-10-18T22:21:09.857Z,21.63
2018-10-18T22:23:37.516Z,21.62
2018-10-18T22:26:05.144Z,21.63
2018-10-18T22:28:32.770Z,21.63
2018-10-18T22:31:00.404Z,21.53
2018-10-18T22:33:28.038Z,21.64
2018-10-18T22:35:55.660Z,21.63
2018-10-18T22:38:23.295Z,21.62
2018-10-18T22:40:50.944Z,21.61
2018-10-18T22:43:18.569Z,21.61
2018-10-18T22:45:51.600Z,21.61
2018-10-18T22:48:19.237Z,21.61
2018-10-18T22:50:46.866Z,21.61
2018-10-18T22:53:14.675Z,21.61
2018-10-18T22:55:42.217Z,21.60
2018-10-18T22:58:09.855Z,21.60
2018-10-18T23:00:37.558Z,21.59
2018-10-18T23:03:05.416Z,21.60
2018-10-18T23:05:32.987Z,21.58
2018-10-18T23:08:00.651Z,21.56
2018-10-18T23:10:28.278Z,21.57
2018-10-18T23:12:55.897Z,21.58
2018-10-18T23:15:23.512Z,21.55
2018-10-18T23:17:51.202Z,21.56
2018-10-18T23:20:18.831Z,21.55
2018-10-18T23:22:46.467Z,21.55
2018-10-18T23:25:14.090Z,21.55
2018-10-18T23:27:41.725Z,21.56
2018-10-18T23:30:09.350Z,21.55
2018-10-18T23:32:37.030Z,21.55
2018-10-18T23:35:05.143Z,21.53
2018-10-18T23:37:32.724Z,21.54
2018-10-18T23:40:00.357Z,21.54
2018-10-18T23:42:28.000Z,21.54
2018-10-18T23:44:55.702Z,21.54
2018-10-18T23:47:23.309Z,21.53
2018-10-18T23:49:50.937Z,21.54
2018-10-18T23:52:18.560Z,21.53
2018-10-18T23:54:46.208Z,21.53
2018-10-18T23:57:13.958Z,21.54
2018-10-18T23:59:41.521Z,21.42
